sensor_id;sensor_type;location;lat;lon;timestamp;pressure;altitude;pressure_sealevel;temperature;humidity
39267;BME280;24967;51.154;13.812;2023-02-13T00:01:21;101616.69;;;8.19;87.76
39267;BME280;24967;51.154;13.812;2023-02-13T00:03:47;101618.50;;;8.19;88.98
39267;BME280;24967;51.154;13.812;2023-02-13T00:06:14;101613.25;;;8.01;89.48
39267;BME280;24967;51.154;13.812;2023-02-13T00:08:40;101617.72;;;8.01;90.19
39267;BME280;24967;51.154;13.812;2023-02-13T00:11:06;101617.38;;;8.07;89.92
39267;BME280;24967;51.154;13.812;2023-02-13T00:13:32;101607.28;;;8.14;89.65
39267;BME280;24967;51.154;13.812;2023-02-13T00:16:00;101615.41;;;7.95;90.77
39267;BME280;24967;51.154;13.812;2023-02-13T00:18:28;101608.38;;;7.78;92.56
39267;BME280;24967;51.154;13.812;2023-02-13T00:20:58;101608.38;;;7.78;93.47
39267;BME280;24967;51.154;13.812;2023-02-13T00:23:24;101601.84;;;7.68;93.75
39267;BME280;24967;51.154;13.812;2023-02-13T00:25:51;101606.66;;;7.77;93.83
39267;BME280;24967;51.154;13.812;2023-02-13T00:28:17;101601.00;;;7.67;94.58
39267;BME280;24967;51.154;13.812;2023-02-13T00:30:43;101605.25;;;7.87;93.81
39267;BME280;24967;51.154;13.812;2023-02-13T00:33:09;101597.41;;;7.68;94.62
39267;BME280;24967;51.154;13.812;2023-02-13T00:35:37;101599.66;;;7.76;95.03
39267;BME280;24967;51.154;13.812;2023-02-13T00:38:03;101608.44;;;7.76;94.85
39267;BME280;24967;51.154;13.812;2023-02-13T00:40:30;101609.56;;;7.72;95.31
39267;BME280;24967;51.154;13.812;2023-02-13T00:42:56;101610.38;;;7.57;95.25
39267;BME280;24967;51.154;13.812;2023-02-13T00:45:22;101607.13;;;7.68;95.65
39267;BME280;24967;51.154;13.812;2023-02-13T00:47:49;101611.34;;;7.72;95.49
39267;BME280;24967;51.154;13.812;2023-02-13T00:50:15;101604.81;;;7.62;96.06
39267;BME280;24967;51.154;13.812;2023-02-13T00:52:43;101607.81;;;7.71;96.30
39267;BME280;24967;51.154;13.812;2023-02-13T00:55:09;101607.16;;;7.84;95.99
39267;BME280;24967;51.154;13.812;2023-02-13T00:57:35;101602.81;;;7.83;95.46
39267;BME280;24967;51.154;13.812;2023-02-13T01:00:02;101608.13;;;7.83;94.89
39267;BME280;24967;51.154;13.812;2023-02-13T01:02:28;101607.28;;;7.82;95.37
39267;BME280;24967;51.154;13.812;2023-02-13T01:04:55;101616.91;;;7.83;95.30
39267;BME280;24967;51.154;13.812;2023-02-13T01:07:22;101604.28;;;7.55;96.89
39267;BME280;24967;51.154;13.812;2023-02-13T01:09:50;101610.44;;;7.55;97.28
39267;BME280;24967;51.154;13.812;2023-02-13T01:12:16;101606.56;;;7.45;97.60
39267;BME280;24967;51.154;13.812;2023-02-13T01:14:42;101611.59;;;7.67;96.63
39267;BME280;24967;51.154;13.812;2023-02-13T01:17:09;101608.31;;;7.62;96.53
39267;BME280;24967;51.154;13.812;2023-02-13T01:19:35;101606.81;;;7.74;97.02
39267;BME280;24967;51.154;13.812;2023-02-13T01:22:01;101608.13;;;7.83;96.09
39267;BME280;24967;51.154;13.812;2023-02-13T01:24:28;101607.34;;;7.80;95.88
39267;BME280;24967;51.154;13.812;2023-02-13T01:26:58;101609.88;;;7.66;96.83
39267;BME280;24967;51.154;13.812;2023-02-13T01:29:26;101600.69;;;7.89;95.82
39267;BME280;24967;51.154;13.812;2023-02-13T01:31:52;101602.69;;;7.68;96.69
39267;BME280;24967;51.154;13.812;2023-02-13T01:34:19;101590.53;;;7.48;98.52
39267;BME280;24967;51.154;13.812;2023-02-13T01:36:45;101596.97;;;7.60;98.79
39267;BME280;24967;51.154;13.812;2023-02-13T01:39:11;101597.06;;;7.74;97.65
39267;BME280;24967;51.154;13.812;2023-02-13T01:41:38;101590.53;;;7.48;99.18
39267;BME280;24967;51.154;13.812;2023-02-13T01:46:47;101586.38;;;7.60;97.51
39267;BME280;24967;51.154;13.812;2023-02-13T01:49:14;101589.34;;;7.54;98.95
39267;BME280;24967;51.154;13.812;2023-02-13T01:51:42;101588.03;;;7.78;97.70
39267;BME280;24967;51.154;13.812;2023-02-13T01:54:11;101594.31;;;7.60;98.12
39267;BME280;24967;51.154;13.812;2023-02-13T01:56:39;101597.97;;;7.75;98.46
39267;BME280;24967;51.154;13.812;2023-02-13T01:59:08;101593.75;;;7.71;98.30
39267;BME280;24967;51.154;13.812;2023-02-13T02:01:35;101596.56;;;7.84;96.85
39267;BME280;24967;51.154;13.812;2023-02-13T02:04:06;101588.56;;;7.85;97.51
39267;BME280;24967;51.154;13.812;2023-02-13T02:06:38;101593.00;;;7.85;97.06
39267;BME280;24967;51.154;13.812;2023-02-13T02:09:07;101584.00;;;7.71;98.48
39267;BME280;24967;51.154;13.812;2023-02-13T02:11:36;101585.97;;;7.84;97.24
39267;BME280;24967;51.154;13.812;2023-02-13T02:14:06;101587.78;;;7.83;97.71
39267;BME280;24967;51.154;13.812;2023-02-13T02:16:32;101581.41;;;7.87;96.59
39267;BME280;24967;51.154;13.812;2023-02-13T02:19:00;101584.97;;;7.86;96.87
39267;BME280;24967;51.154;13.812;2023-02-13T02:24:36;101581.75;;;7.81;97.22
39267;BME280;24967;51.154;13.812;2023-02-13T02:29:56;101583.09;;;7.88;97.26
39267;BME280;24967;51.154;13.812;2023-02-13T02:32:30;101578.72;;;7.71;97.67
39267;BME280;24967;51.154;13.812;2023-02-13T02:35:02;101578.66;;;7.89;97.32
39267;BME280;24967;51.154;13.812;2023-02-13T02:37:48;101585.41;;;7.78;96.99
39267;BME280;24967;51.154;13.812;2023-02-13T02:40:19;101584.81;;;7.89;96.44
39267;BME280;24967;51.154;13.812;2023-02-13T02:42:52;101580.56;;;7.53;99.11
39267;BME280;24967;51.154;13.812;2023-02-13T02:45:22;101576.72;;;7.59;99.13
39267;BME280;24967;51.154;13.812;2023-02-13T02:47:53;101582.09;;;7.57;99.34
39267;BME280;24967;51.154;13.812;2023-02-13T02:50:40;101581.94;;;7.61;98.95
39267;BME280;24967;51.154;13.812;2023-02-13T02:53:14;101584.00;;;7.71;98.34
39267;BME280;24967;51.154;13.812;2023-02-13T02:55:45;101585.63;;;7.74;97.83
39267;BME280;24967;51.154;13.812;2023-02-13T02:58:15;101589.47;;;7.68;98.90
39267;BME280;24967;51.154;13.812;2023-02-13T03:01:01;101586.56;;;7.57;99.10
39267;BME280;24967;51.154;13.812;2023-02-13T03:03:49;101590.72;;;7.61;98.80
39267;BME280;24967;51.154;13.812;2023-02-13T03:06:35;101588.53;;;7.69;98.17
39267;BME280;24967;51.154;13.812;2023-02-13T03:09:03;101590.94;;;7.74;97.63
39267;BME280;24967;51.154;13.812;2023-02-13T03:11:48;101579.31;;;7.43;100.00
39267;BME280;24967;51.154;13.812;2023-02-13T03:14:33;101593.00;;;7.69;99.08
39267;BME280;24967;51.154;13.812;2023-02-13T03:16:59;101588.13;;;7.44;99.84
39267;BME280;24967;51.154;13.812;2023-02-13T03:19:57;101590.03;;;7.57;99.59
39267;BME280;24967;51.154;13.812;2023-02-13T03:22:49;101591.75;;;7.58;98.54
39267;BME280;24967;51.154;13.812;2023-02-13T03:25:25;101588.59;;;7.34;100.00
39267;BME280;24967;51.154;13.812;2023-02-13T03:27:58;101591.19;;;7.36;100.00
39267;BME280;24967;51.154;13.812;2023-02-13T03:30:46;101593.53;;;7.58;99.11
39267;BME280;24967;51.154;13.812;2023-02-13T03:33:17;101591.38;;;7.49;99.43
39267;BME280;24967;51.154;13.812;2023-02-13T03:35:51;101590.69;;;7.45;99.41
39267;BME280;24967;51.154;13.812;2023-02-13T03:38:41;101588.13;;;7.44;100.00
39267;BME280;24967;51.154;13.812;2023-02-13T03:41:10;101589.84;;;7.45;100.00
39267;BME280;24967;51.154;13.812;2023-02-13T03:43:45;101590.91;;;7.58;99.50
39267;BME280;24967;51.154;13.812;2023-02-13T03:46:14;101593.53;;;7.58;99.12
39267;BME280;24967;51.154;13.812;2023-02-13T03:48:41;101578.88;;;7.35;100.00
39267;BME280;24967;51.154;13.812;2023-02-13T03:51:28;101595.81;;;7.66;97.94
39267;BME280;24967;51.154;13.812;2023-02-13T03:53:58;101592.72;;;7.40;99.65
39267;BME280;24967;51.154;13.812;2023-02-13T03:56:25;101597.63;;;7.48;99.33
